sensor_id;sensor_type;location;lat;lon;timestamp;P1;durP1;ratioP1;P2;durP2;ratioP2
51836;SDS011;38941;53.254;6.600;2023-03-14T00:02:06;14.40;;;3.28;;
51836;SDS011;38941;53.254;6.600;2023-03-14T00:04:07;22.85;;;3.60;;
51836;SDS011;38941;53.254;6.600;2023-03-14T00:06:08;17.45;;;3.35;;
51836;SDS011;38941;53.254;6.600;2023-03-14T00:08:10;23.38;;;4.88;;
51836;SDS011;38941;53.254;6.600;2023-03-14T00:10:12;32.15;;;5.80;;
51836;SDS011;38941;53.254;6.600;2023-03-14T00:12:13;19.60;;;2.90;;
51836;SDS011;38941;53.254;6.600;2023-03-14T00:14:14;36.38;;;5.70;;
51836;SDS011;38941;53.254;6.600;2023-03-14T00:16:16;18.08;;;3.88;;
51836;SDS011;38941;53.254;6.600;2023-03-14T00:18:17;19.65;;;3.33;;
51836;SDS011;38941;53.254;6.600;2023-03-14T00:20:19;21.88;;;4.80;;
51836;SDS011;38941;53.254;6.600;2023-03-14T00:22:20;20.05;;;3.85;;
51836;SDS011;38941;53.254;6.600;2023-03-14T00:24:22;22.58;;;3.60;;
51836;SDS011;38941;53.254;6.600;2023-03-14T00:26:22;20.05;;;3.58;;
51836;SDS011;38941;53.254;6.600;2023-03-14T00:28:23;16.13;;;2.67;;
51836;SDS011;38941;53.254;6.600;2023-03-14T00:30:24;15.75;;;2.65;;
51836;SDS011;38941;53.254;6.600;2023-03-14T00:32:25;20.65;;;4.10;;
51836;SDS011;38941;53.254;6.600;2023-03-14T00:34:29;14.70;;;2.72;;
51836;SDS011;38941;53.254;6.600;2023-03-14T00:36:30;23.98;;;4.43;;
51836;SDS011;38941;53.254;6.600;2023-03-14T00:38:32;23.65;;;3.65;;
51836;SDS011;38941;53.254;6.600;2023-03-14T00:40:33;15.88;;;3.80;;
51836;SDS011;38941;53.254;6.600;2023-03-14T00:42:34;26.52;;;4.20;;
51836;SDS011;38941;53.254;6.600;2023-03-14T00:44:35;18.55;;;2.72;;
51836;SDS011;38941;53.254;6.600;2023-03-14T00:46:35;13.32;;;3.30;;
51836;SDS011;38941;53.254;6.600;2023-03-14T00:48:36;21.58;;;3.72;;
51836;SDS011;38941;53.254;6.600;2023-03-14T00:50:37;21.38;;;2.97;;
51836;SDS011;38941;53.254;6.600;2023-03-14T00:52:38;18.65;;;3.00;;
51836;SDS011;38941;53.254;6.600;2023-03-14T00:54:39;23.27;;;2.60;;
51836;SDS011;38941;53.254;6.600;2023-03-14T00:56:39;18.45;;;2.88;;
51836;SDS011;38941;53.254;6.600;2023-03-14T00:58:40;16.80;;;4.13;;
51836;SDS011;38941;53.254;6.600;2023-03-14T01:00:41;15.52;;;3.00;;
51836;SDS011;38941;53.254;6.600;2023-03-14T01:02:43;19.10;;;3.45;;
51836;SDS011;38941;53.254;6.600;2023-03-14T01:04:44;12.95;;;2.17;;
51836;SDS011;38941;53.254;6.600;2023-03-14T01:06:46;15.75;;;2.75;;
51836;SDS011;38941;53.254;6.600;2023-03-14T01:08:47;11.70;;;2.42;;
51836;SDS011;38941;53.254;6.600;2023-03-14T01:10:49;18.08;;;3.72;;
51836;SDS011;38941;53.254;6.600;2023-03-14T01:12:49;12.27;;;2.50;;
51836;SDS011;38941;53.254;6.600;2023-03-14T01:14:50;19.35;;;2.83;;
51836;SDS011;38941;53.254;6.600;2023-03-14T01:16:51;19.90;;;3.38;;
51836;SDS011;38941;53.254;6.600;2023-03-14T01:18:52;16.60;;;3.25;;
51836;SDS011;38941;53.254;6.600;2023-03-14T01:20:53;16.23;;;3.25;;
51836;SDS011;38941;53.254;6.600;2023-03-14T01:22:53;19.23;;;3.13;;
51836;SDS011;38941;53.254;6.600;2023-03-14T01:24:54;15.00;;;2.92;;
51836;SDS011;38941;53.254;6.600;2023-03-14T01:26:56;11.95;;;2.45;;
51836;SDS011;38941;53.254;6.600;2023-03-14T01:28:57;10.20;;;2.20;;
51836;SDS011;38941;53.254;6.600;2023-03-14T01:31:02;9.82;;;2.15;;
51836;SDS011;38941;53.254;6.600;2023-03-14T01:33:07;22.15;;;3.42;;
51836;SDS011;38941;53.254;6.600;2023-03-14T01:35:07;11.52;;;2.40;;
51836;SDS011;38941;53.254;6.600;2023-03-14T01:37:08;14.25;;;2.13;;
51836;SDS011;38941;53.254;6.600;2023-03-14T01:39:09;17.50;;;3.30;;
51836;SDS011;38941;53.254;6.600;2023-03-14T01:41:12;9.27;;;2.30;;
51836;SDS011;38941;53.254;6.600;2023-03-14T01:43:16;19.30;;;3.40;;
51836;SDS011;38941;53.254;6.600;2023-03-14T01:47:56;33.95;;;3.25;;
51836;SDS011;38941;53.254;6.600;2023-03-14T01:50:04;17.98;;;2.10;;
51836;SDS011;38941;53.254;6.600;2023-03-14T01:52:11;17.92;;;3.47;;
51836;SDS011;38941;53.254;6.600;2023-03-14T01:56:53;14.07;;;3.22;;
51836;SDS011;38941;53.254;6.600;2023-03-14T01:59:03;14.07;;;2.63;;
51836;SDS011;38941;53.254;6.600;2023-03-14T02:01:07;13.23;;;2.65;;
51836;SDS011;38941;53.254;6.600;2023-03-14T02:03:10;15.80;;;2.45;;
51836;SDS011;38941;53.254;6.600;2023-03-14T02:05:20;18.08;;;2.45;;
51836;SDS011;38941;53.254;6.600;2023-03-14T02:07:27;13.40;;;1.95;;
51836;SDS011;38941;53.254;6.600;2023-03-14T02:09:55;12.40;;;2.70;;
51836;SDS011;38941;53.254;6.600;2023-03-14T02:11:57;13.98;;;2.05;;
51836;SDS011;38941;53.254;6.600;2023-03-14T02:13:59;15.45;;;2.83;;
51836;SDS011;38941;53.254;6.600;2023-03-14T02:16:01;10.10;;;1.65;;
51836;SDS011;38941;53.254;6.600;2023-03-14T02:18:02;11.38;;;2.45;;
51836;SDS011;38941;53.254;6.600;2023-03-14T02:22:09;7.82;;;1.63;;
51836;SDS011;38941;53.254;6.600;2023-03-14T02:24:15;8.98;;;1.98;;
51836;SDS011;38941;53.254;6.600;2023-03-14T02:26:30;16.38;;;3.28;;
51836;SDS011;38941;53.254;6.600;2023-03-14T02:28:36;12.55;;;1.70;;
51836;SDS011;38941;53.254;6.600;2023-03-14T02:30:37;16.88;;;2.10;;
51836;SDS011;38941;53.254;6.600;2023-03-14T02:32:41;12.05;;;2.33;;
51836;SDS011;38941;53.254;6.600;2023-03-14T02:34:48;6.38;;;1.60;;
51836;SDS011;38941;53.254;6.600;2023-03-14T02:36:53;11.20;;;1.92;;
51836;SDS011;38941;53.254;6.600;2023-03-14T02:41:22;7.95;;;1.35;;
51836;SDS011;38941;53.254;6.600;2023-03-14T02:43:23;6.68;;;1.27;;
51836;SDS011;38941;53.254;6.600;2023-03-14T02:47:29;14.27;;;2.58;;
51836;SDS011;38941;53.254;6.600;2023-03-14T02:49:31;10.23;;;1.55;;
51836;SDS011;38941;53.254;6.600;2023-03-14T02:51:33;19.55;;;3.45;;
51836;SDS011;38941;53.254;6.600;2023-03-14T02:53:36;38.40;;;3.83;;
51836;SDS011;38941;53.254;6.600;2023-03-14T02:55:37;10.40;;;1.52;;
51836;SDS011;38941;53.254;6.600;2023-03-14T02:57:37;12.18;;;2.13;;
51836;SDS011;38941;53.254;6.600;2023-03-14T02:59:38;16.60;;;2.38;;
51836;SDS011;38941;53.254;6.600;2023-03-14T03:01:39;6.63;;;1.50;;
51836;SDS011;38941;53.254;6.600;2023-03-14T03:03:40;6.97;;;1.42;;
51836;SDS011;38941;53.254;6.600;2023-03-14T03:05:40;9.02;;;2.30;;
51836;SDS011;38941;53.254;6.600;2023-03-14T03:07:42;11.55;;;1.85;;
51836;SDS011;38941;53.254;6.600;2023-03-14T03:09:43;11.25;;;2.03;;
51836;SDS011;38941;53.254;6.600;2023-03-14T03:11:44;7.05;;;2.72;;
51836;SDS011;38941;53.254;6.600;2023-03-14T03:13:45;6.60;;;1.63;;
51836;SDS011;38941;53.254;6.600;2023-03-14T03:15:45;6.22;;;1.80;;
51836;SDS011;38941;53.254;6.600;2023-03-14T03:17:46;5.90;;;1.88;;
51836;SDS011;38941;53.254;6.600;2023-03-14T03:19:47;7.55;;;1.63;;
51836;SDS011;38941;53.254;6.600;2023-03-14T03:21:48;10.27;;;2.08;;
51836;SDS011;38941;53.254;6.600;2023-03-14T03:23:49;12.23;;;1.73;;
51836;SDS011;38941;53.254;6.600;2023-03-14T03:25:50;14.45;;;2.80;;
51836;SDS011;38941;53.254;6.600;2023-03-14T03:27:51;9.18;;;1.90;;
51836;SDS011;38941;53.254;6.600;2023-03-14T03:29:52;18.27;;;3.42;;
51836;SDS011;38941;53.254;6.600;2023-03-14T03:31:53;7.85;;;1.70;;
51836;SDS011;38941;53.254;6.600;2023-03-14T03:33:54;10.20;;;2.85;;
51836;SDS011;38941;53.254;6.600;2023-03-14T03:35:55;20.50;;;2.55;;
51836;SDS011;38941;53.254;6.600;2023-03-14T03:37:55;9.70;;;2.78;;
51836;SDS011;38941;53.254;6.600;2023-03-14T03:39:56;8.45;;;2.13;;
51836;SDS011;38941;53.254;6.600;2023-03-14T03:41:57;8.00;;;1.95;;
51836;SDS011;38941;53.254;6.600;2023-03-14T03:43:57;14.82;;;2.17;;
51836;SDS011;38941;53.254;6.600;2023-03-14T03:46:02;6.38;;;1.75;;
51836;SDS011;38941;53.254;6.600;2023-03-14T03:48:04;11.95;;;2.70;;
51836;SDS011;38941;53.254;6.600;2023-03-14T03:50:05;19.17;;;2.92;;
51836;SDS011;38941;53.254;6.600;2023-03-14T03:52:07;12.23;;;2.03;;
51836;SDS011;38941;53.254;6.600;2023-03-14T03:54:09;10.45;;;2.03;;
51836;SDS011;38941;53.254;6.600;2023-03-14T03:56:09;13.93;;;3.45;;
51836;SDS011;38941;53.254;6.600;2023-03-14T03:58:10;22.42;;;3.10;;
51836;SDS011;38941;53.254;6.600;2023-03-14T04:00:11;15.23;;;2.80;;
51836;SDS011;38941;53.254;6.600;2023-03-14T04:02:12;14.35;;;2.22;;
51836;SDS011;38941;53.254;6.600;2023-03-14T04:04:13;9.98;;;2.72;;
51836;SDS011;38941;53.254;6.600;2023-03-14T04:06:14;15.57;;;2.65;;
51836;SDS011;38941;53.254;6.600;2023-03-14T04:08:15;14.60;;;4.90;;
51836;SDS011;38941;53.254;6.600;2023-03-14T04:10:15;15.55;;;2.50;;
51836;SDS011;38941;53.254;6.600;2023-03-14T04:12:16;23.83;;;3.67;;
51836;SDS011;38941;53.254;6.600;2023-03-14T04:14:17;12.32;;;3.58;;
51836;SDS011;38941;53.254;6.600;2023-03-14T04:16:19;16.48;;;3.10;;
51836;SDS011;38941;53.254;6.600;2023-03-14T04:18:22;15.63;;;2.60;;
51836;SDS011;38941;53.254;6.600;2023-03-14T04:20:26;17.23;;;3.28;;
51836;SDS011;38941;53.254;6.600;2023-03-14T04:22:27;13.93;;;2.67;;
51836;SDS011;38941;53.254;6.600;2023-03-14T04:24:28;16.83;;;2.60;;
51836;SDS011;38941;53.254;6.600;2023-03-14T04:26:29;22.42;;;3.50;;
51836;SDS011;38941;53.254;6.600;2023-03-14T04:28:30;17.15;;;3.03;;
51836;SDS011;38941;53.254;6.600;2023-03-14T04:30:31;15.70;;;2.70;;
51836;SDS011;38941;53.254;6.600;2023-03-14T04:32:31;16.80;;;4.30;;
51836;SDS011;38941;53.254;6.600;2023-03-14T04:34:32;15.38;;;2.88;;
51836;SDS011;38941;53.254;6.600;2023-03-14T04:36:33;16.33;;;3.42;;
51836;SDS011;38941;53.254;6.600;2023-03-14T04:38:33;9.98;;;2.88;;
51836;SDS011;38941;53.254;6.600;2023-03-14T04:40:36;14.77;;;3.35;;
51836;SDS011;38941;53.254;6.600;2023-03-14T04:42:39;21.95;;;4.65;;
51836;SDS011;38941;53.254;6.600;2023-03-14T04:44:39;15.95;;;4.22;;
51836;SDS011;38941;53.254;6.600;2023-03-14T04:46:40;18.33;;;3.22;;
51836;SDS011;38941;53.254;6.600;2023-03-14T04:48:41;12.30;;;3.05;;
51836;SDS011;38941;53.254;6.600;2023-03-14T04:50:42;14.10;;;4.13;;
51836;SDS011;38941;53.254;6.600;2023-03-14T04:52:42;13.05;;;3.67;;
51836;SDS011;38941;53.254;6.600;2023-03-14T04:54:43;15.52;;;3.25;;
51836;SDS011;38941;53.254;6.600;2023-03-14T04:56:44;11.07;;;3.47;;
51836;SDS011;38941;53.254;6.600;2023-03-14T04:58:45;15.38;;;3.45;;
51836;SDS011;38941;53.254;6.600;2023-03-14T05:00:46;12.85;;;3.25;;
51836;SDS011;38941;53.254;6.600;2023-03-14T05:02:47;22.08;;;4.82;;
51836;SDS011;38941;53.254;6.600;2023-03-14T05:04:47;18.63;;;4.93;;
51836;SDS011;38941;53.254;6.600;2023-03-14T05:06:48;12.70;;;3.90;;
51836;SDS011;38941;53.254;6.600;2023-03-14T05:08:49;15.13;;;3.67;;
51836;SDS011;38941;53.254;6.600;2023-03-14T05:10:56;14.20;;;3.92;;
51836;SDS011;38941;53.254;6.600;2023-03-14T05:12:57;12.10;;;3.90;;
51836;SDS011;38941;53.254;6.600;2023-03-14T05:14:58;10.73;;;3.72;;
51836;SDS011;38941;53.254;6.600;2023-03-14T05:17:00;10.75;;;3.78;;
51836;SDS011;38941;53.254;6.600;2023-03-14T05:19:01;12.02;;;4.03;;
51836;SDS011;38941;53.254;6.600;2023-03-14T05:21:02;10.85;;;3.58;;
51836;SDS011;38941;53.254;6.600;2023-03-14T05:23:04;11.80;;;3.53;;
51836;SDS011;38941;53.254;6.600;2023-03-14T05:25:05;10.98;;;4.40;;
51836;SDS011;38941;53.254;6.600;2023-03-14T05:27:06;9.43;;;3.20;;
51836;SDS011;38941;53.254;6.600;2023-03-14T05:29:07;16.52;;;3.83;;
51836;SDS011;38941;53.254;6.600;2023-03-14T05:31:08;14.57;;;3.75;;
51836;SDS011;38941;53.254;6.600;2023-03-14T05:33:09;15.48;;;3.92;;
51836;SDS011;38941;53.254;6.600;2023-03-14T05:35:10;13.07;;;3.90;;
51836;SDS011;38941;53.254;6.600;2023-03-14T05:37:10;10.43;;;3.25;;
51836;SDS011;38941;53.254;6.600;2023-03-14T05:39:11;10.60;;;3.17;;
51836;SDS011;38941;53.254;6.600;2023-03-14T05:41:12;9.15;;;3.50;;
51836;SDS011;38941;53.254;6.600;2023-03-14T05:43:13;9.88;;;3.00;;
51836;SDS011;38941;53.254;6.600;2023-03-14T05:45:14;7.90;;;2.58;;
51836;SDS011;38941;53.254;6.600;2023-03-14T05:47:15;10.73;;;3.40;;
51836;SDS011;38941;53.254;6.600;2023-03-14T05:49:16;13.38;;;3.55;;
51836;SDS011;38941;53.254;6.600;2023-03-14T05:51:18;9.57;;;2.85;;
51836;SDS011;38941;53.254;6.600;2023-03-14T05:53:18;10.40;;;2.80;;
51836;SDS011;38941;53.254;6.600;2023-03-14T05:55:20;8.75;;;2.95;;
51836;SDS011;38941;53.254;6.600;2023-03-14T05:57:21;11.10;;;3.20;;
51836;SDS011;38941;53.254;6.600;2023-03-14T05:59:22;5.50;;;2.40;;
51836;SDS011;38941;53.254;6.600;2023-03-14T06:01:23;7.60;;;2.60;;
51836;SDS011;38941;53.254;6.600;2023-03-14T06:03:25;8.15;;;2.55;;
51836;SDS011;38941;53.254;6.600;2023-03-14T06:05:25;10.52;;;2.55;;
51836;SDS011;38941;53.254;6.600;2023-03-14T06:07:26;8.35;;;2.30;;
51836;SDS011;38941;53.254;6.600;2023-03-14T06:09:27;6.43;;;2.15;;
51836;SDS011;38941;53.254;6.600;2023-03-14T06:11:29;8.07;;;2.20;;
51836;SDS011;38941;53.254;6.600;2023-03-14T06:13:29;4.57;;;1.80;;
51836;SDS011;38941;53.254;6.600;2023-03-14T06:17:35;6.28;;;2.15;;
51836;SDS011;38941;53.254;6.600;2023-03-14T06:19:36;3.53;;;1.27;;
51836;SDS011;38941;53.254;6.600;2023-03-14T06:21:37;5.68;;;1.25;;
51836;SDS011;38941;53.254;6.600;2023-03-14T06:23:37;4.47;;;1.35;;
51836;SDS011;38941;53.254;6.600;2023-03-14T06:25:38;4.90;;;1.60;;
51836;SDS011;38941;53.254;6.600;2023-03-14T06:27:40;5.45;;;1.48;;
51836;SDS011;38941;53.254;6.600;2023-03-14T06:29:41;2.55;;;0.77;;
51836;SDS011;38941;53.254;6.600;2023-03-14T06:31:42;5.30;;;0.47;;
51836;SDS011;38941;53.254;6.600;2023-03-14T06:33:43;5.85;;;1.30;;
51836;SDS011;38941;53.254;6.600;2023-03-14T06:35:44;4.13;;;0.80;;
51836;SDS011;38941;53.254;6.600;2023-03-14T06:37:46;4.00;;;0.63;;
51836;SDS011;38941;53.254;6.600;2023-03-14T06:39:46;15.23;;;1.75;;
51836;SDS011;38941;53.254;6.600;2023-03-14T06:41:47;12.43;;;0.95;;
51836;SDS011;38941;53.254;6.600;2023-03-14T06:43:48;22.35;;;3.08;;
51836;SDS011;38941;53.254;6.600;2023-03-14T06:45:49;11.52;;;1.35;;
51836;SDS011;38941;53.254;6.600;2023-03-14T06:47:51;22.08;;;2.20;;
51836;SDS011;38941;53.254;6.600;2023-03-14T06:49:51;14.23;;;1.73;;
51836;SDS011;38941;53.254;6.600;2023-03-14T06:51:52;9.30;;;1.90;;
51836;SDS011;38941;53.254;6.600;2023-03-14T06:53:53;17.42;;;1.65;;
51836;SDS011;38941;53.254;6.600;2023-03-14T06:55:54;8.60;;;1.65;;
51836;SDS011;38941;53.254;6.600;2023-03-14T06:57:55;12.00;;;0.85;;
51836;SDS011;38941;53.254;6.600;2023-03-14T06:59:55;10.90;;;1.25;;
51836;SDS011;38941;53.254;6.600;2023-03-14T07:01:57;8.52;;;0.93;;
51836;SDS011;38941;53.254;6.600;2023-03-14T07:03:58;5.55;;;0.65;;
51836;SDS011;38941;53.254;6.600;2023-03-14T07:05:58;7.47;;;0.93;;
51836;SDS011;38941;53.254;6.600;2023-03-14T07:08:00;5.20;;;0.90;;
51836;SDS011;38941;53.254;6.600;2023-03-14T07:10:01;10.15;;;0.82;;
51836;SDS011;38941;53.254;6.600;2023-03-14T07:12:02;8.15;;;1.00;;
51836;SDS011;38941;53.254;6.600;2023-03-14T07:14:04;6.43;;;1.33;;
51836;SDS011;38941;53.254;6.600;2023-03-14T07:16:05;8.73;;;1.02;;
51836;SDS011;38941;53.254;6.600;2023-03-14T07:18:07;10.00;;;0.70;;
51836;SDS011;38941;53.254;6.600;2023-03-14T07:20:07;6.10;;;0.65;;
51836;SDS011;38941;53.254;6.600;2023-03-14T07:22:09;4.85;;;0.40;;
51836;SDS011;38941;53.254;6.600;2023-03-14T07:24:10;1.27;;;0.35;;
51836;SDS011;38941;53.254;6.600;2023-03-14T07:26:10;0.43;;;0.20;;
51836;SDS011;38941;53.254;6.600;2023-03-14T07:28:11;1.48;;;0.35;;
51836;SDS011;38941;53.254;6.600;2023-03-14T07:30:12;7.00;;;1.10;;
51836;SDS011;38941;53.254;6.600;2023-03-14T07:32:14;2.15;;;0.32;;
51836;SDS011;38941;53.254;6.600;2023-03-14T07:34:15;2.45;;;0.43;;
51836;SDS011;38941;53.254;6.600;2023-03-14T07:36:16;3.00;;;0.60;;
51836;SDS011;38941;53.254;6.600;2023-03-14T07:38:18;3.97;;;0.40;;
51836;SDS011;38941;53.254;6.600;2023-03-14T07:40:19;3.42;;;1.10;;
51836;SDS011;38941;53.254;6.600;2023-03-14T07:42:20;4.22;;;0.65;;
51836;SDS011;38941;53.254;6.600;2023-03-14T07:44:21;4.28;;;0.45;;
51836;SDS011;38941;53.254;6.600;2023-03-14T07:46:22;2.40;;;0.15;;
51836;SDS011;38941;53.254;6.600;2023-03-14T07:48:23;5.78;;;0.40;;
51836;SDS011;38941;53.254;6.600;2023-03-14T07:50:25;3.70;;;0.45;;
51836;SDS011;38941;53.254;6.600;2023-03-14T07:52:26;4.15;;;0.30;;
51836;SDS011;38941;53.254;6.600;2023-03-14T07:54:28;2.25;;;0.40;;
51836;SDS011;38941;53.254;6.600;2023-03-14T07:56:28;0.75;;;0.20;;
51836;SDS011;38941;53.254;6.600;2023-03-14T07:58:30;3.42;;;0.93;;
51836;SDS011;38941;53.254;6.600;2023-03-14T08:00:31;1.83;;;0.40;;
51836;SDS011;38941;53.254;6.600;2023-03-14T08:02:32;3.17;;;0.50;;
51836;SDS011;38941;53.254;6.600;2023-03-14T08:04:33;2.80;;;0.57;;
51836;SDS011;38941;53.254;6.600;2023-03-14T08:06:45;3.20;;;0.40;;
51836;SDS011;38941;53.254;6.600;2023-03-14T08:09:14;2.13;;;0.38;;
51836;SDS011;38941;53.254;6.600;2023-03-14T08:11:42;3.85;;;0.57;;
51836;SDS011;38941;53.254;6.600;2023-03-14T08:13:43;3.40;;;0.50;;
51836;SDS011;38941;53.254;6.600;2023-03-14T08:15:49;3.15;;;0.20;;
51836;SDS011;38941;53.254;6.600;2023-03-14T08:17:52;6.75;;;0.43;;
51836;SDS011;38941;53.254;6.600;2023-03-14T08:19:54;5.25;;;0.32;;
51836;SDS011;38941;53.254;6.600;2023-03-14T08:21:54;3.88;;;0.50;;
51836;SDS011;38941;53.254;6.600;2023-03-14T08:23:56;4.75;;;0.50;;
51836;SDS011;38941;53.254;6.600;2023-03-14T08:25:57;1.92;;;0.77;;
51836;SDS011;38941;53.254;6.600;2023-03-14T08:27:58;7.35;;;1.08;;
51836;SDS011;38941;53.254;6.600;2023-03-14T08:29:59;4.40;;;0.68;;
51836;SDS011;38941;53.254;6.600;2023-03-14T08:32:00;6.25;;;0.93;;
51836;SDS011;38941;53.254;6.600;2023-03-14T08:34:01;7.57;;;1.35;;
51836;SDS011;38941;53.254;6.600;2023-03-14T08:36:03;8.82;;;1.35;;
51836;SDS011;38941;53.254;6.600;2023-03-14T08:38:04;9.60;;;1.42;;
51836;SDS011;38941;53.254;6.600;2023-03-14T08:40:05;7.05;;;1.35;;
51836;SDS011;38941;53.254;6.600;2023-03-14T08:42:07;8.00;;;1.98;;
51836;SDS011;38941;53.254;6.600;2023-03-14T08:44:08;6.78;;;0.80;;
51836;SDS011;38941;53.254;6.600;2023-03-14T08:46:11;7.68;;;1.20;;
51836;SDS011;38941;53.254;6.600;2023-03-14T08:48:11;11.13;;;1.88;;
51836;SDS011;38941;53.254;6.600;2023-03-14T08:50:12;9.23;;;1.17;;
51836;SDS011;38941;53.254;6.600;2023-03-14T08:52:13;10.88;;;1.10;;
51836;SDS011;38941;53.254;6.600;2023-03-14T08:54:16;11.65;;;1.85;;
51836;SDS011;38941;53.254;6.600;2023-03-14T08:56:26;9.15;;;1.95;;
51836;SDS011;38941;53.254;6.600;2023-03-14T08:58:27;11.45;;;1.58;;
51836;SDS011;38941;53.254;6.600;2023-03-14T09:00:29;9.50;;;1.55;;
51836;SDS011;38941;53.254;6.600;2023-03-14T09:02:31;13.45;;;1.58;;
51836;SDS011;38941;53.254;6.600;2023-03-14T09:04:32;17.20;;;2.67;;
51836;SDS011;38941;53.254;6.600;2023-03-14T09:06:33;15.13;;;1.48;;
51836;SDS011;38941;53.254;6.600;2023-03-14T09:08:34;18.00;;;2.38;;
51836;SDS011;38941;53.254;6.600;2023-03-14T09:10:36;11.35;;;2.47;;
51836;SDS011;38941;53.254;6.600;2023-03-14T09:12:45;8.35;;;2.25;;
51836;SDS011;38941;53.254;6.600;2023-03-14T09:14:56;12.25;;;2.80;;
51836;SDS011;38941;53.254;6.600;2023-03-14T09:17:00;12.82;;;1.92;;
51836;SDS011;38941;53.254;6.600;2023-03-14T09:19:00;13.50;;;1.65;;
51836;SDS011;38941;53.254;6.600;2023-03-14T09:21:01;14.55;;;2.72;;
51836;SDS011;38941;53.254;6.600;2023-03-14T09:23:03;14.73;;;2.50;;
51836;SDS011;38941;53.254;6.600;2023-03-14T09:25:05;11.15;;;1.50;;
51836;SDS011;38941;53.254;6.600;2023-03-14T09:27:19;11.80;;;1.90;;
51836;SDS011;38941;53.254;6.600;2023-03-14T09:29:29;22.05;;;3.95;;
51836;SDS011;38941;53.254;6.600;2023-03-14T09:31:30;21.35;;;2.10;;
51836;SDS011;38941;53.254;6.600;2023-03-14T09:33:47;16.05;;;2.53;;
51836;SDS011;38941;53.254;6.600;2023-03-14T09:35:50;14.98;;;1.65;;
51836;SDS011;38941;53.254;6.600;2023-03-14T09:38:01;16.98;;;2.58;;
51836;SDS011;38941;53.254;6.600;2023-03-14T09:40:02;14.48;;;1.88;;
51836;SDS011;38941;53.254;6.600;2023-03-14T09:42:13;10.00;;;1.88;;
51836;SDS011;38941;53.254;6.600;2023-03-14T09:46:26;19.88;;;1.70;;
51836;SDS011;38941;53.254;6.600;2023-03-14T09:48:34;14.38;;;1.85;;
51836;SDS011;38941;53.254;6.600;2023-03-14T09:52:59;8.23;;;1.95;;
51836;SDS011;38941;53.254;6.600;2023-03-14T09:55:12;12.70;;;1.95;;
51836;SDS011;38941;53.254;6.600;2023-03-14T09:57:32;19.35;;;2.33;;
51836;SDS011;38941;53.254;6.600;2023-03-14T09:59:35;11.55;;;1.90;;
51836;SDS011;38941;53.254;6.600;2023-03-14T10:01:39;20.70;;;2.35;;
51836;SDS011;38941;53.254;6.600;2023-03-14T10:03:50;15.40;;;2.67;;
51836;SDS011;38941;53.254;6.600;2023-03-14T10:06:09;19.83;;;2.33;;
51836;SDS011;38941;53.254;6.600;2023-03-14T10:08:12;17.35;;;1.80;;
51836;SDS011;38941;53.254;6.600;2023-03-14T10:10:18;12.23;;;2.75;;
51836;SDS011;38941;53.254;6.600;2023-03-14T10:12:29;22.42;;;2.65;;
51836;SDS011;38941;53.254;6.600;2023-03-14T10:14:35;9.05;;;1.48;;
51836;SDS011;38941;53.254;6.600;2023-03-14T10:16:44;10.43;;;2.20;;
51836;SDS011;38941;53.254;6.600;2023-03-14T10:18:46;10.80;;;2.28;;
51836;SDS011;38941;53.254;6.600;2023-03-14T10:20:47;15.77;;;2.17;;
51836;SDS011;38941;53.254;6.600;2023-03-14T10:23:04;13.73;;;1.90;;
51836;SDS011;38941;53.254;6.600;2023-03-14T10:25:23;24.67;;;2.22;;
51836;SDS011;38941;53.254;6.600;2023-03-14T10:27:34;11.48;;;1.38;;
51836;SDS011;38941;53.254;6.600;2023-03-14T10:29:36;12.03;;;1.50;;
51836;SDS011;38941;53.254;6.600;2023-03-14T10:32:06;26.88;;;2.67;;
51836;SDS011;38941;53.254;6.600;2023-03-14T10:34:30;12.45;;;1.88;;
51836;SDS011;38941;53.254;6.600;2023-03-14T10:36:35;6.30;;;1.42;;
51836;SDS011;38941;53.254;6.600;2023-03-14T10:38:36;6.25;;;1.23;;
51836;SDS011;38941;53.254;6.600;2023-03-14T10:40:39;6.75;;;1.15;;
51836;SDS011;38941;53.254;6.600;2023-03-14T10:42:49;13.93;;;1.25;;
51836;SDS011;38941;53.254;6.600;2023-03-14T10:44:59;11.23;;;1.55;;
51836;SDS011;38941;53.254;6.600;2023-03-14T10:47:03;6.70;;;0.88;;
51836;SDS011;38941;53.254;6.600;2023-03-14T10:49:06;12.27;;;2.28;;
51836;SDS011;38941;53.254;6.600;2023-03-14T10:51:11;20.13;;;1.75;;
51836;SDS011;38941;53.254;6.600;2023-03-14T10:53:33;9.20;;;1.50;;
51836;SDS011;38941;53.254;6.600;2023-03-14T10:55:41;12.68;;;1.90;;
51836;SDS011;38941;53.254;6.600;2023-03-14T10:57:43;5.85;;;1.38;;
51836;SDS011;38941;53.254;6.600;2023-03-14T10:59:44;8.18;;;1.38;;
51836;SDS011;38941;53.254;6.600;2023-03-14T11:10:46;12.32;;;2.65;;
51836;SDS011;38941;53.254;6.600;2023-03-14T11:13:07;3.85;;;1.08;;
51836;SDS011;38941;53.254;6.600;2023-03-14T11:15:25;9.25;;;1.05;;
51836;SDS011;38941;53.254;6.600;2023-03-14T11:17:50;10.13;;;1.10;;
51836;SDS011;38941;53.254;6.600;2023-03-14T11:24:55;4.95;;;0.70;;
51836;SDS011;38941;53.254;6.600;2023-03-14T11:29:41;7.72;;;0.73;;
51836;SDS011;38941;53.254;6.600;2023-03-14T11:31:54;6.10;;;0.70;;
51836;SDS011;38941;53.254;6.600;2023-03-14T11:34:15;2.90;;;0.50;;
51836;SDS011;38941;53.254;6.600;2023-03-14T11:36:23;6.00;;;0.98;;
51836;SDS011;38941;53.254;6.600;2023-03-14T11:38:50;2.03;;;0.60;;
51836;SDS011;38941;53.254;6.600;2023-03-14T11:40:56;3.35;;;0.73;;
51836;SDS011;38941;53.254;6.600;2023-03-14T11:45:29;5.75;;;0.80;;
51836;SDS011;38941;53.254;6.600;2023-03-14T11:47:42;6.47;;;0.73;;
51836;SDS011;38941;53.254;6.600;2023-03-14T11:50:04;3.88;;;0.90;;
51836;SDS011;38941;53.254;6.600;2023-03-14T11:52:35;5.68;;;0.80;;
51836;SDS011;38941;53.254;6.600;2023-03-14T11:54:41;5.18;;;1.08;;
51836;SDS011;38941;53.254;6.600;2023-03-14T11:56:54;7.00;;;1.67;;
51836;SDS011;38941;53.254;6.600;2023-03-14T11:59:01;5.10;;;0.98;;
51836;SDS011;38941;53.254;6.600;2023-03-14T12:01:18;7.88;;;1.52;;
51836;SDS011;38941;53.254;6.600;2023-03-14T12:03:29;5.45;;;1.17;;
51836;SDS011;38941;53.254;6.600;2023-03-14T12:12:12;5.60;;;1.20;;
51836;SDS011;38941;53.254;6.600;2023-03-14T12:14:21;6.50;;;1.55;;
51836;SDS011;38941;53.254;6.600;2023-03-14T12:16:37;4.13;;;1.52;;
51836;SDS011;38941;53.254;6.600;2023-03-14T12:18:39;9.00;;;1.80;;
51836;SDS011;38941;53.254;6.600;2023-03-14T12:20:41;10.68;;;1.00;;
51836;SDS011;38941;53.254;6.600;2023-03-14T12:22:55;10.23;;;1.40;;
51836;SDS011;38941;53.254;6.600;2023-03-14T12:29:58;9.57;;;1.30;;
51836;SDS011;38941;53.254;6.600;2023-03-14T12:34:30;11.23;;;2.10;;
51836;SDS011;38941;53.254;6.600;2023-03-14T12:38:52;8.65;;;1.60;;
51836;SDS011;38941;53.254;6.600;2023-03-14T12:43:35;7.97;;;1.70;;
51836;SDS011;38941;53.254;6.600;2023-03-14T12:45:37;13.65;;;1.58;;
51836;SDS011;38941;53.254;6.600;2023-03-14T12:47:41;7.38;;;1.10;;
51836;SDS011;38941;53.254;6.600;2023-03-14T12:49:51;6.63;;;1.13;;
51836;SDS011;38941;53.254;6.600;2023-03-14T12:52:01;7.50;;;1.27;;
51836;SDS011;38941;53.254;6.600;2023-03-14T12:54:23;4.47;;;0.88;;
51836;SDS011;38941;53.254;6.600;2023-03-14T12:56:45;5.28;;;0.82;;
51836;SDS011;38941;53.254;6.600;2023-03-14T12:59:18;6.55;;;0.80;;
51836;SDS011;38941;53.254;6.600;2023-03-14T13:01:32;4.40;;;0.50;;
51836;SDS011;38941;53.254;6.600;2023-03-14T13:03:42;2.83;;;0.65;;
51836;SDS011;38941;53.254;6.600;2023-03-14T13:05:56;11.82;;;1.30;;
51836;SDS011;38941;53.254;6.600;2023-03-14T13:08:31;8.55;;;1.27;;
51836;SDS011;38941;53.254;6.600;2023-03-14T13:10:39;10.23;;;1.08;;
51836;SDS011;38941;53.254;6.600;2023-03-14T13:14:51;5.35;;;1.10;;
51836;SDS011;38941;53.254;6.600;2023-03-14T13:16:54;11.88;;;1.00;;
51836;SDS011;38941;53.254;6.600;2023-03-14T13:19:09;10.90;;;1.23;;
51836;SDS011;38941;53.254;6.600;2023-03-14T13:21:27;7.38;;;0.93;;